Time;durP1;ratioP1;P1;durP2;ratioP2;P2;SDS_P1;SDS_P2;PMS_P1;PMS_P2;Temp;Humidity;BMP_temperature;BMP_pressure;BME280_temperature;BME280_humidity;BME280_pressure;Samples;Min_cycle;Max_cycle;Signal;HPM_P1;HPM_P2
2022/05/20 00:00:10;;;;;;;5.60;3.05;;;14.50;99.90;;;;;;6165330;23;20016;-90
2022/05/20 00:02:36;;;;;;;6.43;3.65;;;14.50;99.90;;;;;;6165726;23;20027;-91
2022/05/20 00:05:02;;;;;;;5.57;3.30;;;14.40;99.90;;;;;;6165737;23;20013;-93
2022/05/20 00:07:28;;;;;;;5.07;2.83;;;14.40;99.90;;;;;;6190437;23;20016;-92
2022/05/20 00:09:54;;;;;;;5.67;3.03;;;14.40;99.90;;;;;;6165384;23;20027;-92
2022/05/20 00:12:20;;;;;;;5.50;2.92;;;14.30;99.90;;;;;;6165606;23;20267;-91
2022/05/20 00:14:46;;;;;;;5.80;3.25;;;14.30;99.90;;;;;;6165725;23;20337;-92
2022/05/20 00:17:12;;;;;;;5.45;3.40;;;14.30;99.90;;;;;;6166076;23;20095;-93
2022/05/20 00:19:38;;;;;;;6.45;3.53;;;14.30;99.90;;;;;;6165918;23;20465;-92
2022/05/20 00:22:05;;;;;;;6.78;3.83;;;14.30;99.90;;;;;;6165890;23;20017;-93
2022/05/20 00:24:32;;;;;;;5.63;3.55;;;14.30;99.90;;;;;;6165714;23;20013;-92
2022/05/20 00:26:58;;;;;;;7.50;3.95;;;14.30;99.90;;;;;;6165455;23;20020;-91
2022/05/20 00:29:24;;;;;;;5.75;3.80;;;14.40;99.90;;;;;;6165765;23;20017;-92
2022/05/20 00:31:50;;;;;;;6.90;4.03;;;14.40;99.90;;;;;;6165618;23;20402;-93
2022/05/20 00:36:51;;;;;;;6.97;3.90;;;14.40;99.90;;;;;;6247129;23;20020;-91
2022/05/20 00:39:18;;;;;;;5.95;3.50;;;14.40;99.90;;;;;;6195579;23;20020;-90
2022/05/20 00:41:43;;;;;;;6.10;3.95;;;14.30;99.90;;;;;;6195526;23;20020;-89
2022/05/20 00:44:18;;;;;;;6.75;3.83;;;14.40;99.90;;;;;;6195467;23;20400;-90
2022/05/20 00:46:44;;;;;;;5.82;3.22;;;14.30;99.90;;;;;;6220898;23;20012;-90
2022/05/20 00:51:50;;;;;;;6.18;3.22;;;14.20;99.90;;;;;;6214046;23;20091;-90
2022/05/20 00:54:20;;;;;;;5.88;3.13;;;14.20;99.90;;;;;;6165635;23;20047;-89
2022/05/20 00:57:09;;;;;;;5.95;3.05;;;14.10;99.90;;;;;;6165342;23;20020;-90
2022/05/20 00:59:38;;;;;;;7.72;3.60;;;14.10;99.90;;;;;;6165764;23;20460;-90
2022/05/20 01:02:08;;;;;;;6.78;3.72;;;14.00;99.90;;;;;;6165588;23;20016;-90
2022/05/20 01:04:34;;;;;;;6.45;3.15;;;14.00;99.90;;;;;;6190134;23;20017;-89
2022/05/20 01:07:01;;;;;;;6.97;3.80;;;13.90;99.90;;;;;;6165345;23;20393;-91
2022/05/20 01:09:26;;;;;;;6.28;3.25;;;13.90;99.90;;;;;;6165497;23;20096;-89
2022/05/20 01:11:52;;;;;;;6.40;3.60;;;13.80;99.90;;;;;;6165116;23;20036;-89
2022/05/20 01:14:41;;;;;;;5.97;3.47;;;13.80;99.90;;;;;;6165359;23;20078;-89
2022/05/20 01:17:52;;;;;;;5.72;3.53;;;13.80;99.90;;;;;;6165312;23;20048;-90
2022/05/20 01:20:29;;;;;;;6.15;3.50;;;13.70;99.90;;;;;;6151634;23;20016;-90
2022/05/20 01:23:06;;;;;;;6.88;3.80;;;13.70;99.90;;;;;;6165795;23;20017;-89
2022/05/20 01:25:31;;;;;;;7.68;4.07;;;13.60;99.90;;;;;;6165313;23;20021;-91
2022/05/20 01:27:58;;;;;;;8.90;4.30;;;13.60;99.90;;;;;;6165144;23;20028;-89
2022/05/20 01:30:26;;;;;;;5.97;3.78;;;13.50;99.90;;;;;;6164930;23;20521;-88
2022/05/20 01:32:53;;;;;;;8.10;3.63;;;13.50;99.90;;;;;;6165069;23;20397;-91
2022/05/20 01:35:41;;;;;;;6.93;3.88;;;13.50;99.90;;;;;;6164492;23;20023;-91
2022/05/20 01:38:09;;;;;;;6.90;3.92;;;13.40;99.90;;;;;;6165220;23;20012;-93
2022/05/20 01:41:42;;;;;;;6.00;3.67;;;13.40;99.90;;;;;;6189982;23;20021;-92
2022/05/20 01:44:20;;;;;;;6.38;4.20;;;13.40;99.90;;;;;;6161229;23;20020;-91
2022/05/20 01:47:05;;;;;;;7.97;4.60;;;13.30;99.90;;;;;;6165380;23;20028;-91
2022/05/20 01:49:51;;;;;;;8.43;4.35;;;13.30;99.90;;;;;;6165129;23;20017;-92
2022/05/20 01:52:31;;;;;;;7.82;4.65;;;13.20;99.90;;;;;;6164998;23;20023;-92
2022/05/20 01:55:39;;;;;;;8.35;4.65;;;13.20;99.90;;;;;;6165114;23;20029;-91
2022/05/20 01:58:11;;;;;;;9.38;5.07;;;13.20;99.90;;;;;;6101526;23;20016;-91
2022/05/20 02:00:39;;;;;;;8.93;5.03;;;13.10;99.90;;;;;;6171501;23;20043;-91
2022/05/20 02:03:14;;;;;;;8.52;5.28;;;13.10;99.90;;;;;;6165316;23;20021;-91
2022/05/20 02:05:48;;;;;;;8.93;5.03;;;13.10;99.90;;;;;;6165038;23;20020;-91
2022/05/20 02:08:20;;;;;;;9.73;4.78;;;13.10;99.90;;;;;;6164450;23;20017;-91
2022/05/20 02:11:04;;;;;;;10.00;5.68;;;13.20;99.90;;;;;;6165190;23;20024;-91
2022/05/20 02:13:33;;;;;;;8.30;5.25;;;13.20;99.90;;;;;;6165543;23;20013;-93
2022/05/20 02:16:19;;;;;;;9.02;5.68;;;13.20;99.90;;;;;;6192074;23;20028;-93
2022/05/20 02:18:51;;;;;;;9.73;5.50;;;13.20;99.90;;;;;;6165376;23;20052;-92
2022/05/20 02:21:21;;;;;;;11.18;5.53;;;13.20;99.90;;;;;;6165151;23;20051;-93
2022/05/20 02:27:31;;;;;;;9.50;5.40;;;13.20;99.90;;;;;;6172406;23;20033;-95
2022/05/20 02:30:18;;;;;;;10.38;5.03;;;13.20;99.90;;;;;;6168691;23;20040;-92
2022/05/20 02:32:52;;;;;;;8.48;4.97;;;13.10;99.90;;;;;;6170418;23;20021;-90
2022/05/20 02:35:18;;;;;;;8.25;5.28;;;13.10;99.90;;;;;;6170511;23;20013;-91
2022/05/20 02:37:44;;;;;;;8.57;5.60;;;13.00;99.90;;;;;;6196716;23;20092;-91
2022/05/20 02:40:18;;;;;;;8.40;5.30;;;13.00;99.90;;;;;;6169950;23;20032;-91
2022/05/20 02:42:44;;;;;;;8.48;5.07;;;13.00;99.90;;;;;;6166656;23;20268;-91
2022/05/20 02:45:10;;;;;;;10.13;5.57;;;13.00;99.90;;;;;;6191134;23;20106;-93
2022/05/20 02:47:36;;;;;;;;;;;12.90;99.90;;;;;;6166993;23;20020;-90
2022/05/20 02:50:07;;;;;;;9.23;5.35;;;12.90;99.90;;;;;;6166363;23;19922;-90
2022/05/20 02:52:33;;;;;;;9.77;5.80;;;12.90;99.90;;;;;;6166132;23;20095;-90
2022/05/20 02:54:59;;;;;;;7.68;4.85;;;12.90;99.90;;;;;;6165977;23;20072;-91
2022/05/20 02:57:26;;;;;;;8.45;5.43;;;12.90;99.90;;;;;;6165723;23;20016;-92
2022/05/20 03:05:24;;;;;;;11.20;4.97;;;12.90;99.90;;;;;;6191392;23;20020;-91
2022/05/20 03:07:50;;;;;;;8.30;5.15;;;12.80;99.90;;;;;;6166653;23;20465;-92
2022/05/20 03:10:17;;;;;;;8.48;4.75;;;12.80;99.90;;;;;;6166697;23;20013;-91
2022/05/20 03:12:43;;;;;;;10.70;5.22;;;12.80;99.90;;;;;;6191058;23;20016;-91
2022/05/20 03:15:12;;;;;;;8.93;5.40;;;12.80;99.90;;;;;;6166280;23;20036;-91
2022/05/20 03:17:38;;;;;;;10.15;5.95;;;12.80;99.90;;;;;;6191152;23;20034;-92
2022/05/20 03:20:05;;;;;;;;;;;12.70;99.90;;;;;;6167111;23;20016;-91
2022/05/20 03:22:33;;;;;;;8.35;4.95;;;12.70;99.90;;;;;;6166134;23;19923;-91
2022/05/20 03:24:58;;;;;;;8.85;5.43;;;12.70;99.90;;;;;;6166186;23;20055;-90
2022/05/20 03:27:24;;;;;;;9.00;5.40;;;12.70;99.90;;;;;;6165668;23;20016;-91
2022/05/20 03:29:50;;;;;;;10.53;5.00;;;12.70;99.90;;;;;;6165557;23;20302;-90
2022/05/20 03:32:16;;;;;;;8.20;5.20;;;12.70;99.90;;;;;;6166247;23;20407;-90
2022/05/20 03:34:43;;;;;;;9.45;5.45;;;12.70;99.90;;;;;;6165563;23;20243;-90
2022/05/20 03:37:09;;;;;;;;;;;12.70;99.90;;;;;;6166841;23;20023;-91
2022/05/20 03:39:35;;;;;;;7.88;4.22;;;12.60;99.90;;;;;;6165904;23;19947;-91
2022/05/20 03:42:01;;;;;;;;;;;12.70;99.90;;;;;;6166192;23;20021;-91
2022/05/20 03:44:27;;;;;;;9.27;5.07;;;12.60;99.90;;;;;;6166051;23;19916;-92
2022/05/20 03:46:55;;;;;;;8.15;4.40;;;12.70;99.90;;;;;;6166212;23;20098;-91
2022/05/20 03:49:32;;;;;;;7.82;4.63;;;12.60;99.90;;;;;;6166408;23;20020;-92
2022/05/20 03:52:04;;;;;;;7.80;4.55;;;12.70;99.90;;;;;;6167142;23;20082;-92
2022/05/20 03:54:34;;;;;;;9.73;4.18;;;12.60;99.90;;;;;;6166094;23;20017;-90
2022/05/20 03:57:02;;;;;;;8.70;4.13;;;12.70;99.90;;;;;;6165840;23;20449;-91
2022/05/20 03:59:28;;;;;;;8.55;4.50;;;12.70;99.90;;;;;;6166057;23;20020;-91
2022/05/20 04:01:57;;;;;;;;;;;12.70;99.90;;;;;;6166345;23;20047;-92
2022/05/20 04:04:33;;;;;;;7.68;4.28;;;12.70;99.90;;;;;;6165990;23;19916;-92
2022/05/20 04:07:07;;;;;;;7.43;4.18;;;12.70;99.90;;;;;;6165871;23;20019;-92
2022/05/20 04:09:33;;;;;;;7.55;4.20;;;12.70;99.90;;;;;;6166187;23;20016;-92
2022/05/20 04:12:24;;;;;;;9.32;4.93;;;12.70;99.90;;;;;;6165846;23;20043;-94
2022/05/20 04:14:50;;;;;;;9.48;4.53;;;12.70;99.90;;;;;;6191134;23;20017;-94
2022/05/20 04:17:16;;;;;;;9.50;4.47;;;12.70;99.90;;;;;;6190686;23;20055;-94
2022/05/20 04:19:41;;;;;;;7.30;4.10;;;12.80;99.90;;;;;;6166051;23;20095;-94
2022/05/20 04:22:08;;;;;;;9.40;5.00;;;12.80;99.90;;;;;;6190763;23;20020;-94
2022/05/20 04:24:35;;;;;;;7.60;4.68;;;12.80;99.90;;;;;;6166041;23;20055;-93
2022/05/20 04:27:01;;;;;;;8.18;4.43;;;12.80;99.90;;;;;;6190365;23;20016;-94
2022/05/20 04:29:27;;;;;;;8.38;4.50;;;12.80;99.90;;;;;;6165806;23;20481;-94
2022/05/20 04:31:53;;;;;;;8.85;4.60;;;12.80;99.90;;;;;;6190986;23;20071;-93
2022/05/20 04:34:20;;;;;;;8.27;4.57;;;12.90;99.90;;;;;;6165218;23;20446;-92
2022/05/20 04:36:45;;;;;;;;;;;12.90;99.90;;;;;;6166146;23;20020;-92
2022/05/20 04:39:11;;;;;;;8.07;4.20;;;12.90;99.90;;;;;;6190350;23;19920;-92
2022/05/20 04:47:13;;;;;;;9.20;4.88;;;13.00;99.90;;;;;;6220013;23;20103;-92
2022/05/20 04:49:42;;;;;;;9.57;5.25;;;13.00;99.90;;;;;;6190389;23;20350;-91
2022/05/20 04:52:09;;;;;;;9.88;5.15;;;13.10;99.90;;;;;;6216657;23;20461;-90
2022/05/20 04:54:50;;;;;;;9.00;5.18;;;13.10;99.90;;;;;;6216766;23;20024;-89
2022/05/20 04:57:25;;;;;;;10.27;5.65;;;13.10;99.90;;;;;;6190007;23;20458;-91
2022/05/20 04:59:53;;;;;;;9.73;5.28;;;13.10;99.90;;;;;;6189899;23;20528;-91
2022/05/20 05:02:20;;;;;;;9.65;5.97;;;13.10;99.90;;;;;;6164858;23;20391;-89
2022/05/20 05:04:46;;;;;;;9.88;5.43;;;13.20;99.90;;;;;;6164239;23;20016;-90
2022/05/20 05:07:12;;;;;;;11.27;5.53;;;13.20;99.90;;;;;;6189521;23;20346;-89
2022/05/20 05:09:40;;;;;;;11.00;5.68;;;13.30;99.90;;;;;;6165008;23;20091;-89
2022/05/20 05:12:07;;;;;;;10.00;5.45;;;13.30;99.90;;;;;;6190108;23;20096;-91
2022/05/20 05:14:38;;;;;;;9.98;4.97;;;13.40;99.90;;;;;;6190149;23;20023;-92
2022/05/20 05:17:05;;;;;;;9.30;5.32;;;13.50;99.90;;;;;;6193090;23;20024;-89
2022/05/20 05:19:33;;;;;;;9.70;5.50;;;13.60;99.90;;;;;;6178202;23;20064;-92
2022/05/20 05:21:59;;;;;;;10.27;5.28;;;13.70;99.90;;;;;;6167071;23;20025;-90
2022/05/20 05:24:25;;;;;;;8.40;5.22;;;13.80;99.90;;;;;;6215418;23;20024;-92
2022/05/20 05:26:51;;;;;;;10.98;5.30;;;13.90;99.90;;;;;;6165203;23;20023;-92
2022/05/20 05:29:16;;;;;;;10.93;5.07;;;14.00;99.90;;;;;;6165373;23;20027;-92
2022/05/20 05:31:42;;;;;;;8.50;5.10;;;14.10;99.90;;;;;;6190263;23;20355;-88
2022/05/20 05:34:10;;;;;;;9.00;4.73;;;14.10;99.90;;;;;;6190395;23;20028;-90
2022/05/20 05:36:36;;;;;;;10.30;5.40;;;14.10;99.90;;;;;;6216580;23;20024;-92
2022/05/20 05:39:02;;;;;;;9.30;4.97;;;14.20;99.90;;;;;;6164862;23;20023;-94
2022/05/20 05:41:28;;;;;;;8.77;5.13;;;14.20;99.90;;;;;;6216628;23;20050;-94
2022/05/20 05:43:54;;;;;;;9.02;5.03;;;14.40;99.90;;;;;;6190087;23;20051;-94
2022/05/20 05:46:20;;;;;;;8.60;5.03;;;14.50;99.90;;;;;;6165192;23;20027;-92
2022/05/20 05:48:45;;;;;;;7.90;4.60;;;14.60;99.90;;;;;;6189973;23;20267;-94
2022/05/20 05:51:11;;;;;;;8.20;4.45;;;14.80;99.90;;;;;;6164876;23;20017;-92
2022/05/20 05:53:37;;;;;;;8.35;4.57;;;14.90;99.90;;;;;;6165055;23;20024;-92
2022/05/20 05:56:06;;;;;;;7.75;4.47;;;15.00;99.90;;;;;;6216173;23;20025;-92
2022/05/20 05:58:32;;;;;;;7.75;4.07;;;15.10;99.90;;;;;;6189826;23;20021;-92
2022/05/20 06:00:58;;;;;;;8.15;4.53;;;15.10;99.90;;;;;;6189467;23;20079;-92
2022/05/20 06:03:24;;;;;;;7.63;4.38;;;15.20;99.90;;;;;;6189827;23;20027;-92
2022/05/20 06:05:50;;;;;;;8.70;4.18;;;15.10;99.90;;;;;;6216243;23;20020;-91
2022/05/20 06:08:16;;;;;;;9.77;4.85;;;15.00;99.90;;;;;;6189180;23;20020;-91
2022/05/20 06:10:43;;;;;;;7.60;4.28;;;14.90;99.90;;;;;;6216414;23;20016;-93
2022/05/20 06:13:09;;;;;;;8.35;4.20;;;15.00;99.90;;;;;;6216062;23;20024;-91
2022/05/20 06:15:37;;;;;;;7.97;4.50;;;15.00;99.90;;;;;;6189665;23;20052;-90
2022/05/20 06:18:03;;;;;;;7.15;4.45;;;15.00;99.90;;;;;;6164539;23;20027;-91
2022/05/20 06:20:29;;;;;;;6.43;3.80;;;15.00;99.90;;;;;;6189463;23;20016;-93
2022/05/20 06:22:56;;;;;;;7.30;3.92;;;15.00;99.90;;;;;;6189619;23;20021;-93
2022/05/20 06:25:23;;;;;;;7.63;3.65;;;15.10;99.90;;;;;;6216097;23;20450;-92
2022/05/20 06:27:52;;;;;;;6.90;4.05;;;15.20;99.90;;;;;;6189743;23;20016;-94
2022/05/20 06:30:19;;;;;;;8.38;4.43;;;15.40;99.90;;;;;;6189505;23;20072;-93
2022/05/20 06:32:45;;;;;;;8.10;3.85;;;15.40;99.90;;;;;;6189602;23;20017;-91
2022/05/20 06:40:44;;;;;;;7.40;3.47;;;15.50;99.90;;;;;;6216176;23;20020;-93
2022/05/20 06:43:15;;;;;;;7.00;3.70;;;15.70;99.90;;;;;;6164502;23;20251;-89
2022/05/20 06:45:42;;;;;;;8.25;3.95;;;16.00;99.90;;;;;;6164602;23;20021;-88
2022/05/20 06:48:08;;;;;;;5.95;3.28;;;16.50;99.90;;;;;;6189355;23;20319;-90
2022/05/20 06:50:37;;;;;;;6.95;3.80;;;16.70;99.90;;;;;;6214098;23;20405;-89
2022/05/20 06:53:03;;;;;;;6.90;3.80;;;16.60;99.90;;;;;;6163994;23;20508;-90
2022/05/20 06:55:29;;;;;;;6.97;3.88;;;16.30;99.90;;;;;;6164315;23;20032;-91
2022/05/20 06:57:55;;;;;;;7.18;3.72;;;16.00;99.90;;;;;;6215549;23;20016;-90
2022/05/20 07:00:20;;;;;;;8.10;3.83;;;15.90;99.90;;;;;;6189489;23;20021;-90
2022/05/20 07:02:46;;;;;;;6.78;3.78;;;15.80;99.90;;;;;;6188907;23;20023;-91
2022/05/20 07:05:12;;;;;;;6.88;3.92;;;15.70;99.90;;;;;;6164484;23;20512;-91
2022/05/20 07:07:39;;;;;;;6.13;3.20;;;15.70;99.90;;;;;;6189327;23;20135;-88
2022/05/20 07:10:07;;;;;;;6.75;3.25;;;15.70;99.90;;;;;;6164944;23;20102;-90
2022/05/20 07:12:34;;;;;;;8.73;3.63;;;15.70;99.90;;;;;;6166097;23;20025;-91
2022/05/20 07:15:00;;;;;;;7.50;4.32;;;16.00;99.90;;;;;;6190937;23;20035;-91
2022/05/20 07:17:27;;;;;;;7.32;3.70;;;16.10;99.90;;;;;;6190587;23;20021;-89
2022/05/20 07:19:53;;;;;;;7.40;4.22;;;16.40;99.90;;;;;;6190950;23;20010;-90
2022/05/20 07:22:18;;;;;;;6.95;3.78;;;16.70;99.90;;;;;;6190989;23;20021;-90
2022/05/20 07:24:44;;;;;;;8.07;3.33;;;16.70;99.90;;;;;;6216878;23;20483;-92
2022/05/20 07:27:10;;;;;;;5.53;3.45;;;16.50;99.90;;;;;;6221372;23;20020;-90
2022/05/20 07:29:36;;;;;;;5.50;2.95;;;16.40;99.90;;;;;;6171076;23;20013;-88
2022/05/20 07:32:02;;;;;;;5.10;2.88;;;16.20;99.90;;;;;;6167231;23;20020;-89
2022/05/20 07:34:36;;;;;;;5.60;3.22;;;16.00;99.90;;;;;;6190961;23;20016;-90
2022/05/20 07:37:02;;;;;;;5.20;2.58;;;15.90;99.90;;;;;;6165795;23;20139;-91
2022/05/20 07:39:28;;;;;;;4.75;2.47;;;15.90;99.90;;;;;;6191135;23;20016;-93
2022/05/20 07:41:55;;;;;;;6.45;3.30;;;15.80;99.90;;;;;;6190459;23;20106;-89
2022/05/20 07:44:21;;;;;;;5.90;3.13;;;15.90;99.90;;;;;;6217421;23;20027;-90
2022/05/20 07:46:47;;;;;;;6.78;3.45;;;16.00;99.90;;;;;;6215629;23;20013;-88
2022/05/20 07:49:34;;;;;;;5.90;3.30;;;16.10;99.90;;;;;;6191013;23;20016;-89
2022/05/20 07:55:06;;;;;;;6.38;3.25;;;16.20;99.90;;;;;;6189663;23;20091;-88
2022/05/20 07:57:33;;;;;;;6.60;3.70;;;16.20;99.90;;;;;;6165829;23;20021;-88
2022/05/20 07:59:59;;;;;;;7.75;3.85;;;16.20;99.90;;;;;;6190175;23;20008;-89
2022/05/20 08:02:27;;;;;;;6.75;3.67;;;16.20;99.90;;;;;;6191263;23;20339;-88
2022/05/20 08:05:01;;;;;;;6.65;2.80;;;16.10;99.90;;;;;;6166762;23;20066;-89
2022/05/20 08:07:31;;;;;;;5.43;2.95;;;16.10;99.90;;;;;;6191952;23;20024;-92
2022/05/20 08:10:00;;;;;;;5.47;2.72;;;16.10;99.90;;;;;;6190241;23;20019;-87
2022/05/20 08:12:26;;;;;;;5.85;2.92;;;16.10;99.90;;;;;;6216810;23;20324;-88
2022/05/20 08:14:52;;;;;;;6.45;2.47;;;16.20;99.90;;;;;;6217153;23;20017;-90
2022/05/20 08:17:24;;;;;;;6.13;2.72;;;16.30;99.90;;;;;;6165422;23;20449;-87
2022/05/20 08:19:53;;;;;;;4.65;2.55;;;16.40;99.90;;;;;;6190051;23;20025;-86
2022/05/20 08:22:23;;;;;;;6.85;2.58;;;16.40;99.90;;;;;;6190402;23;20020;-88
2022/05/20 08:24:54;;;;;;;7.05;2.20;;;16.40;99.90;;;;;;6165563;23;20017;-88
2022/05/20 08:27:25;;;;;;;4.32;2.17;;;16.40;99.90;;;;;;6191571;23;20020;-86
2022/05/20 08:29:51;;;;;;;4.68;2.03;;;16.40;99.90;;;;;;6190887;23;20012;-86
2022/05/20 08:32:17;;;;;;;3.38;1.80;;;16.40;99.90;;;;;;6216806;23;20020;-87
2022/05/20 08:34:44;;;;;;;4.07;1.70;;;16.50;99.90;;;;;;6166038;23;20016;-87
2022/05/20 08:37:11;;;;;;;4.28;1.60;;;16.50;99.90;;;;;;6165380;23;20017;-87
2022/05/20 08:39:37;;;;;;;4.22;1.45;;;16.50;99.90;;;;;;6164937;23;20028;-87
2022/05/20 08:42:04;;;;;;;3.47;1.60;;;16.60;99.90;;;;;;6189637;23;20021;-87
2022/05/20 08:44:33;;;;;;;4.10;1.38;;;16.70;99.90;;;;;;6214695;23;20052;-88
2022/05/20 08:47:13;;;;;;;3.53;1.40;;;16.70;99.90;;;;;;6214541;23;20323;-88
2022/05/20 08:49:40;;;;;;;3.65;1.30;;;16.70;99.90;;;;;;6189668;23;20016;-87
2022/05/20 08:52:06;;;;;;;3.80;1.65;;;16.70;99.90;;;;;;6189371;23;20051;-86
2022/05/20 08:54:31;;;;;;;3.58;1.38;;;16.70;99.90;;;;;;6216091;23;20020;-88
2022/05/20 08:57:09;;;;;;;3.28;1.42;;;16.70;99.90;;;;;;6189556;23;20017;-86
2022/05/20 08:59:36;;;;;;;4.05;1.35;;;16.70;99.90;;;;;;6189571;23;20044;-87
2022/05/20 09:02:02;;;;;;;3.88;1.70;;;16.80;99.90;;;;;;6214561;23;20025;-89
2022/05/20 09:04:27;;;;;;;5.40;1.73;;;16.80;99.90;;;;;;6189571;23;20188;-88
2022/05/20 09:07:14;;;;;;;3.53;1.60;;;16.80;99.90;;;;;;6214811;23;20332;-87
2022/05/20 09:09:39;;;;;;;3.22;1.58;;;16.90;99.90;;;;;;6215933;23;20016;-89
2022/05/20 09:12:06;;;;;;;3.80;1.77;;;16.90;99.90;;;;;;6216435;23;20103;-87
2022/05/20 09:17:22;;;;;;;4.13;1.55;;;17.00;99.90;;;;;;6214550;23;20021;-88
2022/05/20 09:20:00;;;;;;;5.38;2.17;;;17.00;99.90;;;;;;6214581;23;20350;-87
2022/05/20 09:22:32;;;;;;;4.22;1.67;;;17.10;99.90;;;;;;6215848;23;20074;-88
2022/05/20 09:24:58;;;;;;;3.60;1.60;;;17.10;99.90;;;;;;6214515;23;20422;-88
2022/05/20 09:27:42;;;;;;;4.22;1.33;;;17.10;99.90;;;;;;6214537;23;20051;-87
2022/05/20 09:30:12;;;;;;;4.35;1.50;;;17.20;99.90;;;;;;6214783;23;20013;-91
2022/05/20 09:32:45;;;;;;;4.00;1.65;;;17.20;99.90;;;;;;6214306;23;20051;-90
2022/05/20 09:35:17;;;;;;;3.55;1.27;;;17.20;99.90;;;;;;6164435;23;20012;-88
2022/05/20 09:37:44;;;;;;;3.42;1.30;;;17.20;99.90;;;;;;6215873;23;20028;-90
2022/05/20 09:40:34;;;;;;;3.42;1.48;;;17.30;99.90;;;;;;6214577;23;20017;-88
2022/05/20 09:43:21;;;;;;;2.22;1.17;;;17.30;99.90;;;;;;6189455;23;20016;-89
2022/05/20 09:45:49;;;;;;;3.72;1.63;;;17.30;99.90;;;;;;6164500;23;20013;-86
2022/05/20 09:48:42;;;;;;;3.88;1.85;;;17.30;99.90;;;;;;6216367;23;20027;-89
2022/05/20 09:51:21;;;;;;;3.90;1.88;;;17.40;99.90;;;;;;6214321;23;20020;-89
2022/05/20 09:54:13;;;;;;;3.25;1.58;;;17.40;99.90;;;;;;6189340;23;20016;-89
2022/05/20 09:56:45;;;;;;;3.50;1.70;;;17.40;99.90;;;;;;6214257;23;20021;-88
2022/05/20 09:59:36;;;;;;;5.75;1.73;;;17.40;99.90;;;;;;6189322;23;20458;-93
2022/05/20 10:02:09;;;;;;;3.42;1.52;;;17.50;99.90;;;;;;6214579;23;20024;-89
2022/05/20 10:04:41;;;;;;;3.25;1.55;;;17.40;99.90;;;;;;6213698;23;20027;-89
2022/05/20 10:07:13;;;;;;;3.13;1.23;;;17.50;99.90;;;;;;6214242;23;20342;-89
2022/05/20 10:09:47;;;;;;;4.53;1.15;;;17.50;99.90;;;;;;6189551;23;20083;-88
2022/05/20 10:12:27;;;;;;;3.72;1.42;;;17.50;99.90;;;;;;6190991;23;20017;-89
2022/05/20 10:15:06;;;;;;;2.20;1.13;;;17.50;99.90;;;;;;6191586;23;20012;-89
2022/05/20 10:18:02;;;;;;;5.57;1.33;;;17.50;99.90;;;;;;6189451;23;20021;-88
2022/05/20 10:20:52;;;;;;;3.55;1.70;;;17.50;99.90;;;;;;6188923;23;20362;-89
2022/05/20 10:23:57;;;;;;;3.35;1.52;;;17.50;99.90;;;;;;6189158;23;20024;-89
2022/05/20 10:27:03;;;;;;;3.25;1.27;;;17.50;99.90;;;;;;6212903;23;20029;-89
2022/05/20 10:32:54;;;;;;;3.53;1.50;;;17.50;99.90;;;;;;6214125;23;20516;-89
2022/05/20 10:41:04;;;;;;;3.50;1.77;;;17.60;99.90;;;;;;6185539;23;20025;-87
2022/05/20 10:50:21;;;;;;;6.03;2.30;;;17.70;99.90;;;;;;6163949;23;20055;-88
2022/05/20 10:53:15;;;;;;;5.10;2.28;;;17.80;99.90;;;;;;6135999;23;20374;-87
2022/05/20 10:55:40;;;;;;;5.85;2.28;;;17.80;99.90;;;;;;6160254;23;20067;-88
2022/05/20 10:58:31;;;;;;;3.85;1.95;;;17.80;99.90;;;;;;6136629;23;20446;-87
2022/05/20 11:01:35;;;;;;;5.57;2.10;;;17.80;99.90;;;;;;6135014;23;20048;-88
2022/05/20 11:04:36;;;;;;;5.45;1.83;;;17.90;99.90;;;;;;6162636;23;20025;-88
2022/05/20 11:07:31;;;;;;;5.60;1.88;;;17.90;99.90;;;;;;6135566;23;20355;-89
2022/05/20 11:10:27;;;;;;;6.60;2.00;;;17.90;99.90;;;;;;6082587;23;20057;-90
2022/05/20 11:12:59;;;;;;;4.53;2.00;;;18.00;99.90;;;;;;6136162;23;20015;-88
2022/05/20 11:15:30;;;;;;;6.60;2.50;;;18.00;99.90;;;;;;6136103;23;20087;-89
2022/05/20 11:18:02;;;;;;;4.97;1.90;;;18.00;99.90;;;;;;6136417;23;20103;-88
2022/05/20 11:20:59;;;;;;;4.03;1.50;;;18.10;99.90;;;;;;6140960;23;20009;-90
2022/05/20 11:23:44;;;;;;;4.28;1.95;;;18.10;99.90;;;;;;6141672;23;20021;-88
2022/05/20 11:26:24;;;;;;;5.00;1.73;;;18.20;99.90;;;;;;6161364;23;20017;-90
2022/05/20 11:29:25;;;;;;;5.88;2.33;;;18.20;99.90;;;;;;6160093;23;20025;-88
2022/05/20 11:32:12;;;;;;;5.30;2.30;;;18.20;99.90;;;;;;6135915;23;20013;-88
2022/05/20 11:34:40;;;;;;;8.00;2.45;;;18.40;99.90;;;;;;6187794;23;20133;-87
2022/05/20 11:37:28;;;;;;;4.75;2.17;;;18.40;99.90;;;;;;6160016;23;20462;-88
2022/05/20 11:40:21;;;;;;;4.30;2.00;;;18.50;99.90;;;;;;6135510;23;20109;-88
2022/05/20 11:43:20;;;;;;;3.65;1.98;;;18.50;99.90;;;;;;6135423;23;20024;-88
2022/05/20 11:46:24;;;;;;;5.20;2.92;;;18.60;99.90;;;;;;6136572;23;20063;-90
2022/05/20 11:49:26;;;;;;;4.45;2.03;;;18.70;99.90;;;;;;6187253;23;20324;-90
2022/05/20 11:52:17;;;;;;;5.47;2.55;;;18.80;99.90;;;;;;6136434;23;20021;-89
2022/05/20 11:54:54;;;;;;;5.97;2.75;;;18.80;99.90;;;;;;6136421;23;20020;-88
2022/05/20 11:57:24;;;;;;;4.78;2.45;;;18.90;99.90;;;;;;6136062;23;20104;-89
2022/05/20 12:00:00;;;;;;;5.15;2.40;;;19.00;99.90;;;;;;6136131;23;20013;-89
2022/05/20 12:02:28;;;;;;;6.07;3.67;;;19.00;99.90;;;;;;6160623;23;20013;-90
2022/05/20 12:04:55;;;;;;;5.72;2.90;;;19.10;99.90;;;;;;6184232;23;20053;-91
2022/05/20 12:07:23;;;;;;;5.57;2.90;;;19.10;99.90;;;;;;6158794;23;20021;-91
2022/05/20 12:09:57;;;;;;;7.28;3.33;;;19.20;99.90;;;;;;6159730;23;20021;-89
2022/05/20 12:12:34;;;;;;;5.82;3.38;;;19.20;99.90;;;;;;6160626;23;20020;-89
2022/05/20 12:15:01;;;;;;;;;;;19.00;99.90;;;;;;6160872;23;20017;-89
2022/05/20 12:17:48;;;;;;;6.55;3.35;;;19.00;99.90;;;;;;6186674;23;20231;-90
2022/05/20 12:26:17;;;;;;;4.60;2.35;;;18.80;99.90;;;;;;6160233;23;20048;-88
2022/05/20 12:28:42;;;;;;;4.38;2.25;;;18.80;99.90;;;;;;6159578;23;20056;-94
2022/05/20 12:31:13;;;;;;;3.38;1.67;;;18.80;99.90;;;;;;6160246;23;20021;-90
2022/05/20 12:33:50;;;;;;;5.55;2.13;;;18.80;99.90;;;;;;6136083;23;20026;-89
2022/05/20 12:36:23;;;;;;;5.75;2.83;;;18.70;99.90;;;;;;6160022;23;20017;-89
2022/05/20 12:38:50;;;;;;;4.40;2.50;;;18.70;99.90;;;;;;6135454;23;20087;-91
2022/05/20 12:41:18;;;;;;;4.30;2.20;;;18.60;99.90;;;;;;6135786;23;20023;-89
2022/05/20 12:43:53;;;;;;;5.65;2.47;;;18.70;99.90;;;;;;6135948;23;20025;-93
2022/05/20 12:46:32;;;;;;;5.43;2.65;;;18.70;99.90;;;;;;6135637;23;20069;-89
2022/05/20 12:48:58;;;;;;;4.97;2.33;;;18.80;99.90;;;;;;6160512;23;20017;-89
2022/05/20 12:51:24;;;;;;;6.63;2.60;;;18.90;99.90;;;;;;6135565;23;20024;-89
2022/05/20 12:53:50;;;;;;;5.18;2.67;;;19.10;99.90;;;;;;6160160;23;20025;-91
2022/05/20 12:56:35;;;;;;;5.00;2.38;;;19.20;99.90;;;;;;6136733;23;20044;-91
2022/05/20 12:59:15;;;;;;;4.65;2.78;;;19.20;99.90;;;;;;6161522;23;20092;-87
2022/05/20 13:01:51;;;;;;;4.72;2.13;;;19.00;99.90;;;;;;6161006;23;20028;-88
2022/05/20 13:04:19;;;;;;;5.82;2.65;;;19.00;99.90;;;;;;6135174;23;20346;-88
2022/05/20 13:06:47;;;;;;;5.30;2.33;;;18.90;99.90;;;;;;6133295;23;20025;-87
2022/05/20 13:09:22;;;;;;;5.00;2.30;;;18.80;99.90;;;;;;6183877;23;20021;-88
2022/05/20 13:11:50;;;;;;;4.80;2.90;;;18.80;99.90;;;;;;6157548;23;20017;-89
2022/05/20 13:14:18;;;;;;;6.00;2.40;;;18.80;99.90;;;;;;6184120;23;20121;-89
2022/05/20 13:16:55;;;;;;;4.72;2.30;;;18.70;99.90;;;;;;6159265;23;20068;-88
2022/05/20 13:19:59;;;;;;;4.88;2.97;;;18.70;99.90;;;;;;6159606;23;20017;-90
2022/05/20 13:22:28;;;;;;;5.60;3.40;;;18.70;99.90;;;;;;6139946;23;20342;-88
2022/05/20 13:25:00;;;;;;;5.32;2.95;;;18.70;99.90;;;;;;6159485;23;20013;-91
2022/05/20 13:27:27;;;;;;;4.53;2.63;;;18.60;99.90;;;;;;6159859;23;20097;-89
2022/05/20 13:29:53;;;;;;;6.55;3.08;;;18.50;99.90;;;;;;6135385;23;20017;-89
2022/05/20 13:32:30;;;;;;;;;;;18.50;99.90;;;;;;6136323;23;20009;-89
2022/05/20 13:34:58;;;;;;;5.20;2.88;;;18.40;99.90;;;;;;6137852;23;19916;-88
2022/05/20 13:37:37;;;;;;;5.25;3.08;;;18.40;99.90;;;;;;6139244;23;20013;-91
2022/05/20 13:40:18;;;;;;;4.82;2.63;;;18.30;99.90;;;;;;6135210;23;20024;-89
2022/05/20 13:42:51;;;;;;;5.65;2.92;;;18.20;99.90;;;;;;6159679;23;20021;-89
2022/05/20 13:45:20;;;;;;;4.50;2.80;;;18.20;99.90;;;;;;6159671;23;20017;-88
2022/05/20 13:50:33;;;;;;;4.80;2.80;;;18.20;99.90;;;;;;6100500;23;20463;-89
2022/05/20 13:52:59;;;;;;;5.38;2.75;;;18.10;99.90;;;;;;6185786;23;20017;-91
2022/05/20 13:55:33;;;;;;;5.28;3.22;;;18.00;99.90;;;;;;6134805;23;20021;-90
2022/05/20 13:57:59;;;;;;;6.40;3.38;;;18.00;99.90;;;;;;6135030;23;20009;-89
2022/05/20 14:00:42;;;;;;;6.78;3.53;;;17.90;99.90;;;;;;6159378;23;20028;-90
2022/05/20 14:03:28;;;;;;;5.35;3.20;;;17.90;99.90;;;;;;6135019;23;20017;-90
2022/05/20 14:05:56;;;;;;;4.80;2.70;;;17.80;99.90;;;;;;6159688;23;20017;-89
2022/05/20 14:08:23;;;;;;;4.35;2.55;;;17.80;99.90;;;;;;6185740;23;20017;-89